Time;durP1;ratioP1;P1;durP2;ratioP2;P2;SDS_P1;SDS_P2;PMS_P1;PMS_P2;Temp;Humidity;BMP_temperature;BMP_pressure;BME280_temperature;BME280_humidity;BME280_pressure;Samples;Min_cycle;Max_cycle;Signal;HPM_P1;HPM_P2
2021/05/14 00:01:48;;;;;;;3.00;1.63;;;;;;;;;;5090679;28;20805;-68
2021/05/14 00:04:14;;;;;;;1.07;0.80;;;;;;;;;;5101955;28;20964;-68
2021/05/14 00:06:40;;;;;;;1.30;0.80;;;;;;;;;;5111152;28;20410;-68
2021/05/14 00:09:06;;;;;;;3.90;1.83;;;;;;;;;;5110798;28;20430;-67
2021/05/14 00:11:32;;;;;;;1.10;1.00;;;;;;;;;;5111523;28;20383;-68
2021/05/14 00:13:59;;;;;;;1.80;1.27;;;;;;;;;;5114573;28;20455;-69
2021/05/14 00:16:25;;;;;;;2.00;1.90;;;;;;;;;;5103151;28;20415;-68
2021/05/14 00:18:51;;;;;;;1.00;0.90;;;;;;;;;;5094395;28;20549;-69
2021/05/14 00:21:17;;;;;;;1.33;1.10;;;;;;;;;;5093866;28;20495;-69
2021/05/14 00:23:43;;;;;;;1.00;0.83;;;;;;;;;;5106672;28;20418;-68
2021/05/14 00:26:09;;;;;;;1.23;0.93;;;;;;;;;;5114932;28;20883;-71
2021/05/14 00:28:35;;;;;;;5.17;1.67;;;;;;;;;;5114670;28;20590;-71
2021/05/14 00:31:01;;;;;;;13.10;1.50;;;;;;;;;;5114243;28;20375;-68
2021/05/14 00:33:27;;;;;;;1.77;1.20;;;;;;;;;;5104615;28;20498;-68
2021/05/14 00:35:53;;;;;;;1.47;1.07;;;;;;;;;;5105761;28;20782;-69
2021/05/14 00:38:19;;;;;;;2.10;1.40;;;;;;;;;;5114486;28;20405;-68
2021/05/14 00:40:45;;;;;;;9.03;1.33;;;;;;;;;;5114383;28;20427;-68
2021/05/14 00:43:11;;;;;;;1.90;0.83;;;;;;;;;;5114201;28;20475;-67
2021/05/14 00:45:39;;;;;;;0.97;0.87;;;;;;;;;;5114479;28;20416;-69
2021/05/14 00:48:05;;;;;;;1.33;0.97;;;;;;;;;;5102928;28;20472;-68
2021/05/14 00:50:31;;;;;;;1.53;0.93;;;;;;;;;;5110941;28;20414;-68
2021/05/14 00:52:57;;;;;;;1.90;1.07;;;;;;;;;;5114337;28;20724;-68
2021/05/14 00:55:23;;;;;;;1.13;0.90;;;;;;;;;;5114019;28;20509;-68
2021/05/14 00:57:49;;;;;;;1.67;1.23;;;;;;;;;;5114497;28;20407;-68
2021/05/14 01:00:15;;;;;;;1.53;1.43;;;;;;;;;;5102628;28;20878;-70
2021/05/14 01:02:41;;;;;;;0.70;0.50;;;;;;;;;;5093972;28;20788;-69
2021/05/14 01:05:07;;;;;;;1.00;0.90;;;;;;;;;;5093843;28;20404;-70
2021/05/14 01:07:33;;;;;;;1.40;1.20;;;;;;;;;;5093749;28;20415;-69
2021/05/14 01:09:59;;;;;;;2.00;0.80;;;;;;;;;;5100948;28;20913;-69
2021/05/14 01:12:25;;;;;;;0.97;0.60;;;;;;;;;;5103329;28;20396;-69
2021/05/14 01:14:51;;;;;;;0.93;0.87;;;;;;;;;;5093444;28;20399;-69
2021/05/14 01:17:17;;;;;;;4.40;1.10;;;;;;;;;;5110931;28;20776;-69
2021/05/14 01:19:43;;;;;;;0.80;0.70;;;;;;;;;;5113979;28;20414;-69
2021/05/14 01:22:09;;;;;;;1.83;1.73;;;;;;;;;;5113989;28;20367;-70
2021/05/14 01:24:35;;;;;;;1.17;0.80;;;;;;;;;;5102368;28;20390;-70
2021/05/14 01:27:01;;;;;;;4.73;1.20;;;;;;;;;;5075631;28;20747;-69
2021/05/14 01:29:27;;;;;;;0.80;0.60;;;;;;;;;;5093235;28;20899;-69
2021/05/14 01:31:53;;;;;;;3.27;1.30;;;;;;;;;;5075292;28;20384;-70
2021/05/14 01:34:19;;;;;;;2.10;1.10;;;;;;;;;;5092927;28;20512;-69
2021/05/14 01:36:45;;;;;;;1.63;1.20;;;;;;;;;;5094067;28;20877;-69
2021/05/14 01:39:13;;;;;;;4.10;0.90;;;;;;;;;;5092618;28;20407;-69
2021/05/14 01:41:39;;;;;;;2.47;1.67;;;;;;;;;;5103383;28;20488;-68
2021/05/14 01:44:06;;;;;;;1.03;0.90;;;;;;;;;;5106199;28;20456;-69
2021/05/14 01:46:32;;;;;;;1.50;0.93;;;;;;;;;;5084504;28;20897;-70
2021/05/14 01:48:58;;;;;;;1.20;0.90;;;;;;;;;;5105101;28;20981;-69
2021/05/14 01:51:24;;;;;;;1.17;0.87;;;;;;;;;;5113084;28;20371;-68
2021/05/14 01:53:51;;;;;;;1.30;1.20;;;;;;;;;;5112707;28;20400;-69
2021/05/14 01:56:17;;;;;;;1.20;1.00;;;;;;;;;;5112909;28;20412;-69
2021/05/14 01:58:43;;;;;;;2.10;1.90;;;;;;;;;;5111602;28;20406;-69
2021/05/14 02:01:09;;;;;;;2.13;1.93;;;;;;;;;;5096516;28;20930;-69
2021/05/14 02:03:35;;;;;;;1.13;0.83;;;;;;;;;;5092348;28;20421;-69
2021/05/14 02:06:01;;;;;;;2.70;1.33;;;;;;;;;;5092380;28;20770;-69
2021/05/14 02:08:27;;;;;;;1.57;1.10;;;;;;;;;;5091746;28;20388;-69
2021/05/14 02:10:54;;;;;;;2.03;1.93;;;;;;;;;;5091423;28;20484;-69
2021/05/14 02:13:20;;;;;;;0.97;0.90;;;;;;;;;;5109457;28;20469;-69
2021/05/14 02:15:46;;;;;;;2.50;1.37;;;;;;;;;;5112664;28;20420;-70
2021/05/14 02:18:12;;;;;;;3.10;1.97;;;;;;;;;;5112859;28;20446;-72
2021/05/14 02:20:38;;;;;;;1.30;1.20;;;;;;;;;;5112355;28;20404;-71
2021/05/14 02:23:04;;;;;;;2.97;1.90;;;;;;;;;;5112755;28;20447;-69
2021/05/14 02:25:30;;;;;;;2.80;1.27;;;;;;;;;;5096066;28;20413;-69
2021/05/14 02:27:56;;;;;;;1.97;1.43;;;;;;;;;;5092043;28;20420;-69
2021/05/14 02:30:22;;;;;;;2.00;1.80;;;;;;;;;;5091473;28;20935;-69
2021/05/14 02:32:48;;;;;;;1.87;1.60;;;;;;;;;;5091836;28;20761;-71
2021/05/14 02:35:14;;;;;;;1.00;0.80;;;;;;;;;;5091872;28;20462;-69
2021/05/14 02:37:40;;;;;;;3.77;1.40;;;;;;;;;;5107304;28;20501;-68
2021/05/14 02:40:06;;;;;;;3.20;1.67;;;;;;;;;;5105775;28;20433;-69
2021/05/14 02:42:32;;;;;;;1.73;1.33;;;;;;;;;;5091740;28;21007;-69
2021/05/14 02:44:58;;;;;;;2.83;1.30;;;;;;;;;;5091873;28;20417;-69
2021/05/14 02:47:24;;;;;;;1.60;1.50;;;;;;;;;;5091730;28;20379;-69
2021/05/14 02:49:50;;;;;;;4.90;2.20;;;;;;;;;;5105552;28;20439;-68
2021/05/14 02:52:16;;;;;;;1.60;1.10;;;;;;;;;;5112008;28;20463;-69
2021/05/14 02:54:42;;;;;;;2.10;1.90;;;;;;;;;;5102911;28;20471;-70
2021/05/14 02:57:08;;;;;;;2.80;2.60;;;;;;;;;;5094144;28;20416;-69
2021/05/14 02:59:34;;;;;;;4.17;1.83;;;;;;;;;;5111398;28;20408;-71
2021/05/14 03:02:00;;;;;;;1.07;0.97;;;;;;;;;;5097165;28;20930;-70
2021/05/14 03:04:26;;;;;;;3.70;1.90;;;;;;;;;;5091412;28;20476;-70
2021/05/14 03:06:52;;;;;;;5.27;1.73;;;;;;;;;;5091449;28;20429;-71
2021/05/14 03:09:18;;;;;;;3.30;2.20;;;;;;;;;;5106090;28;20434;-70
2021/05/14 03:11:44;;;;;;;2.67;2.40;;;;;;;;;;5111595;28;20396;-70
2021/05/14 03:14:10;;;;;;;1.87;1.43;;;;;;;;;;5097534;28;20466;-71
2021/05/14 03:16:38;;;;;;;1.53;0.90;;;;;;;;;;5091544;28;20366;-70
2021/05/14 03:19:04;;;;;;;5.40;1.23;;;;;;;;;;5103805;28;20432;-71
2021/05/14 03:21:31;;;;;;;5.63;1.70;;;;;;;;;;5111622;28;20462;-70
2021/05/14 03:24:00;;;;;;;4.50;1.27;;;;;;;;;;5110648;28;20422;-70
2021/05/14 03:26:26;;;;;;;5.13;1.47;;;;;;;;;;5097116;28;20435;-70
2021/05/14 03:28:52;;;;;;;17.70;2.60;;;;;;;;;;5090661;28;20528;-71
2021/05/14 03:31:18;;;;;;;1.37;0.97;;;;;;;;;;5090916;28;20387;-70
2021/05/14 03:33:44;;;;;;;1.53;1.37;;;;;;;;;;5090980;28;20762;-71
2021/05/14 03:36:10;;;;;;;5.00;2.40;;;;;;;;;;5102424;28;20398;-71
2021/05/14 03:38:36;;;;;;;1.73;1.40;;;;;;;;;;5100294;28;20403;-70
2021/05/14 03:41:04;;;;;;;2.43;1.70;;;;;;;;;;5090801;28;20503;-70
2021/05/14 03:43:30;;;;;;;5.30;2.43;;;;;;;;;;5090800;28;20463;-71
2021/05/14 03:45:56;;;;;;;1.27;0.87;;;;;;;;;;5090753;28;20416;-70
2021/05/14 03:48:22;;;;;;;3.43;1.90;;;;;;;;;;5094667;28;20393;-71
2021/05/14 03:50:50;;;;;;;2.97;1.10;;;;;;;;;;5094620;28;20393;-73
2021/05/14 03:53:16;;;;;;;3.57;2.73;;;;;;;;;;5095043;28;20402;-71
2021/05/14 03:55:42;;;;;;;6.73;2.33;;;;;;;;;;5114288;28;20551;-69
2021/05/14 03:58:08;;;;;;;1.70;1.23;;;;;;;;;;5113920;28;20448;-69
2021/05/14 04:00:34;;;;;;;2.43;2.00;;;;;;;;;;5114973;28;20404;-69
2021/05/14 04:03:00;;;;;;;4.43;1.70;;;;;;;;;;5113754;28;20524;-68
2021/05/14 04:05:27;;;;;;;1.20;1.10;;;;;;;;;;5094799;28;20870;-69
2021/05/14 04:07:53;;;;;;;1.83;0.80;;;;;;;;;;5095584;28;20426;-72
2021/05/14 04:10:31;;;;;;;10.43;3.07;;;;;;;;;;5114708;28;20739;-70
2021/05/14 04:15:42;;;;;;;3.80;1.50;;;;;;;;;;5115188;28;20391;-70
2021/05/14 04:18:08;;;;;;;1.70;1.60;;;;;;;;;;5114511;28;20434;-69
2021/05/14 04:20:34;;;;;;;2.60;1.20;;;;;;;;;;5114405;28;20359;-70
2021/05/14 04:23:00;;;;;;;1.47;1.00;;;;;;;;;;5104660;28;20431;-70
2021/05/14 04:25:26;;;;;;;4.67;2.33;;;;;;;;;;5094290;28;20455;-69
2021/05/14 04:27:52;;;;;;;2.20;1.20;;;;;;;;;;5094454;28;20437;-69
2021/05/14 04:30:18;;;;;;;2.07;1.40;;;;;;;;;;5093755;28;20410;-71
2021/05/14 04:32:44;;;;;;;1.53;1.00;;;;;;;;;;5109207;28;20440;-71
2021/05/14 04:35:10;;;;;;;1.87;1.37;;;;;;;;;;5114477;28;20392;-70
2021/05/14 04:37:36;;;;;;;1.60;1.40;;;;;;;;;;5098882;28;20392;-70
2021/05/14 04:40:03;;;;;;;2.83;1.23;;;;;;;;;;5093729;28;20469;-70
2021/05/14 04:42:31;;;;;;;1.87;0.90;;;;;;;;;;5096425;28;20466;-69
2021/05/14 04:44:57;;;;;;;2.70;2.50;;;;;;;;;;5094215;28;20411;-69
2021/05/14 04:47:25;;;;;;;1.90;1.73;;;;;;;;;;5094036;28;20396;-70
2021/05/14 04:49:51;;;;;;;1.40;1.27;;;;;;;;;;5094196;28;20420;-70
2021/05/14 04:52:20;;;;;;;5.37;1.67;;;;;;;;;;5114285;28;20402;-70
2021/05/14 04:54:46;;;;;;;1.20;0.93;;;;;;;;;;5112839;28;20929;-70
2021/05/14 04:57:13;;;;;;;1.30;1.20;;;;;;;;;;5093807;28;20420;-70
2021/05/14 04:59:39;;;;;;;1.57;1.37;;;;;;;;;;5097428;28;20411;-69
2021/05/14 05:02:07;;;;;;;3.57;1.43;;;;;;;;;;5097461;28;20388;-70
2021/05/14 05:04:37;;;;;;;4.50;1.57;;;;;;;;;;5099025;28;20404;-69
2021/05/14 05:07:03;;;;;;;1.33;1.23;;;;;;;;;;5112513;28;20398;-70
2021/05/14 05:09:29;;;;;;;2.03;1.43;;;;;;;;;;5093397;28;20460;-69
2021/05/14 05:11:55;;;;;;;4.07;2.00;;;;;;;;;;5094011;28;20765;-67
2021/05/14 05:14:21;;;;;;;1.43;1.20;;;;;;;;;;5093594;28;20425;-70
2021/05/14 05:16:47;;;;;;;1.23;0.80;;;;;;;;;;5112450;28;20490;-69
2021/05/14 05:19:13;;;;;;;2.60;2.40;;;;;;;;;;5100141;28;20461;-70
2021/05/14 05:21:39;;;;;;;1.33;0.83;;;;;;;;;;5085034;28;20396;-70
2021/05/14 05:24:06;;;;;;;1.27;1.13;;;;;;;;;;5086117;28;20930;-70
2021/05/14 05:26:34;;;;;;;1.50;1.30;;;;;;;;;;5084982;28;20401;-70
2021/05/14 05:29:00;;;;;;;1.23;0.80;;;;;;;;;;5115708;22;20491;-76
2021/05/14 05:31:26;;;;;;;2.60;1.40;;;;;;;;;;5087853;28;20390;-78
2021/05/14 05:33:52;;;;;;;1.53;0.80;;;;;;;;;;5076646;28;20445;-79
2021/05/14 05:36:20;;;;;;;0.90;0.80;;;;;;;;;;5081470;28;20441;-77
2021/05/14 05:38:51;;;;;;;1.37;1.27;;;;;;;;;;5097149;28;20490;-77
2021/05/14 05:41:17;;;;;;;1.37;1.23;;;;;;;;;;5099201;28;20426;-77
2021/05/14 05:43:44;;;;;;;1.13;0.70;;;;;;;;;;5081120;28;20434;-77
2021/05/14 05:46:12;;;;;;;14.40;3.20;;;;;;;;;;5090832;28;20391;-77
2021/05/14 05:48:38;;;;;;;1.53;1.20;;;;;;;;;;5097592;28;20466;-77
2021/05/14 05:51:09;;;;;;;1.97;1.77;;;;;;;;;;5090297;28;20401;-76
2021/05/14 05:53:35;;;;;;;1.30;1.20;;;;;;;;;;5078690;28;20395;-77
2021/05/14 05:56:01;;;;;;;1.83;1.03;;;;;;;;;;5085245;28;20433;-77
2021/05/14 05:58:27;;;;;;;2.23;1.70;;;;;;;;;;5099831;28;20376;-77
2021/05/14 06:00:53;;;;;;;245.73;179.20;;;;;;;;;;5094510;28;20409;-77
2021/05/14 06:03:19;;;;;;;461.60;168.18;;;;;;;;;;5100698;28;20444;-77
2021/05/14 06:05:45;;;;;;;1.30;1.07;;;;;;;;;;5102298;28;20670;-77
2021/05/14 06:08:11;;;;;;;1.97;1.27;;;;;;;;;;5094785;28;20402;-77
2021/05/14 06:10:37;;;;;;;3.77;1.10;;;;;;;;;;5084218;28;20516;-78
2021/05/14 06:13:03;;;;;;;5.50;1.47;;;;;;;;;;5094753;28;20419;-78
2021/05/14 06:15:29;;;;;;;1.53;1.00;;;;;;;;;;5094090;28;20403;-77
2021/05/14 06:17:55;;;;;;;0.93;0.80;;;;;;;;;;5082053;28;20838;-76
2021/05/14 06:20:25;;;;;;;3.63;1.73;;;;;;;;;;5099064;28;20432;-77
2021/05/14 06:22:54;;;;;;;2.50;1.33;;;;;;;;;;5080432;28;20487;-77
2021/05/14 06:25:20;;;;;;;1.57;1.47;;;;;;;;;;5081587;28;20426;-76
2021/05/14 06:27:47;;;;;;;9.63;1.23;;;;;;;;;;5081500;28;20395;-77
2021/05/14 06:30:13;;;;;;;1.10;0.73;;;;;;;;;;5101087;28;20414;-78
2021/05/14 06:32:39;;;;;;;1.50;1.20;;;;;;;;;;5109704;28;20418;-77
2021/05/14 06:35:06;;;;;;;1.37;0.93;;;;;;;;;;5085606;28;20952;-78
2021/05/14 06:37:36;;;;;;;1.27;1.17;;;;;;;;;;5081616;28;20421;-78
2021/05/14 06:40:02;;;;;;;1.07;0.97;;;;;;;;;;5100015;28;20857;-77
2021/05/14 06:42:29;;;;;;;1.23;1.13;;;;;;;;;;5098238;28;20404;-75
2021/05/14 06:44:55;;;;;;;0.90;0.80;;;;;;;;;;5097872;28;20453;-75
2021/05/14 06:47:21;;;;;;;1.67;1.13;;;;;;;;;;5079874;28;20397;-73
2021/05/14 06:49:47;;;;;;;1.40;1.30;;;;;;;;;;5096852;28;20401;-71
2021/05/14 06:52:13;;;;;;;1.83;1.53;;;;;;;;;;5096574;28;20412;-71
2021/05/14 06:54:39;;;;;;;1.23;1.00;;;;;;;;;;5069722;28;20492;-76
2021/05/14 06:57:09;;;;;;;3.67;1.20;;;;;;;;;;5063030;28;20447;-75
2021/05/14 06:59:37;;;;;;;1.10;0.90;;;;;;;;;;5078413;28;20404;-75
2021/05/14 07:02:03;;;;;;;1.53;1.30;;;;;;;;;;5078191;28;20436;-77
2021/05/14 07:04:32;;;;;;;1.47;1.37;;;;;;;;;;5070144;28;20997;-77
2021/05/14 07:06:58;;;;;;;1.23;1.00;;;;;;;;;;5088376;28;20944;-81
2021/05/14 07:09:24;;;;;;;1.57;1.47;;;;;;;;;;5081569;28;20380;-81
2021/05/14 07:11:50;;;;;;;6.00;1.50;;;;;;;;;;5073558;28;20379;-75
2021/05/14 07:14:16;;;;;;;1.50;1.40;;;;;;;;;;5055200;28;20403;-79
2021/05/14 07:16:43;;;;;;;1.40;1.00;;;;;;;;;;5063578;28;20464;-79
2021/05/14 07:19:19;;;;;;;1.83;1.00;;;;;;;;;;5065977;28;20421;-81
2021/05/14 07:21:45;;;;;;;1.73;1.10;;;;;;;;;;5091069;28;20925;-80
2021/05/14 07:24:11;;;;;;;1.20;1.07;;;;;;;;;;5091510;28;20454;-85
2021/05/14 07:26:37;;;;;;;1.10;1.00;;;;;;;;;;5096814;28;20368;-84
2021/05/14 07:29:04;;;;;;;1.77;1.67;;;;;;;;;;5090385;28;20392;-83
2021/05/14 07:31:30;;;;;;;1.30;0.90;;;;;;;;;;5085411;28;20377;-85
2021/05/14 07:33:56;;;;;;;1.00;0.90;;;;;;;;;;5063242;28;20451;-79
2021/05/14 07:36:24;;;;;;;3.37;1.30;;;;;;;;;;5080098;28;20421;-82
2021/05/14 07:38:53;;;;;;;1.00;0.90;;;;;;;;;;5078872;28;20399;-84
2021/05/14 07:41:21;;;;;;;12.90;1.90;;;;;;;;;;5083371;28;20441;-78
2021/05/14 07:43:47;;;;;;;1.60;0.90;;;;;;;;;;5085016;28;20439;-80
2021/05/14 07:46:13;;;;;;;1.23;1.13;;;;;;;;;;5083546;28;20374;-80
2021/05/14 07:48:39;;;;;;;1.30;1.20;;;;;;;;;;5083226;28;20385;-78
2021/05/14 07:51:05;;;;;;;1.13;0.70;;;;;;;;;;5064714;28;20415;-78
2021/05/14 07:53:31;;;;;;;1.20;0.97;;;;;;;;;;5085009;28;20383;-78
2021/05/14 07:55:57;;;;;;;1.23;1.10;;;;;;;;;;5086561;28;20380;-79
2021/05/14 07:58:23;;;;;;;2.07;1.00;;;;;;;;;;5103616;28;20412;-79
2021/05/14 08:00:50;;;;;;;0.90;0.80;;;;;;;;;;5104965;28;20412;-81
2021/05/14 08:03:17;;;;;;;1.73;0.80;;;;;;;;;;5079324;28;20424;-81
2021/05/14 08:05:47;;;;;;;2.50;1.27;;;;;;;;;;5077608;28;20405;-83
2021/05/14 08:08:15;;;;;;;0.90;0.70;;;;;;;;;;5094509;28;20417;-80
2021/05/14 08:10:41;;;;;;;2.80;1.07;;;;;;;;;;5073903;28;20412;-79
2021/05/14 08:13:08;;;;;;;1.23;1.13;;;;;;;;;;5092810;28;20746;-80
2021/05/14 08:15:35;;;;;;;1.10;1.00;;;;;;;;;;5095076;28;20922;-84
2021/05/14 08:18:03;;;;;;;8.00;1.50;;;;;;;;;;5082762;28;20432;-79
2021/05/14 08:20:29;;;;;;;1.30;1.13;;;;;;;;;;5096615;28;20407;-79
2021/05/14 08:22:55;;;;;;;1.07;0.87;;;;;;;;;;5097066;28;20449;-81
2021/05/14 08:25:23;;;;;;;1.57;1.47;;;;;;;;;;5100238;28;20512;-85
2021/05/14 08:27:49;;;;;;;1.97;1.60;;;;;;;;;;5083065;28;20431;-82
2021/05/14 08:30:16;;;;;;;20.93;1.90;;;;;;;;;;5103855;28;20424;-82
2021/05/14 08:32:42;;;;;;;1.73;1.63;;;;;;;;;;5098314;28;20396;-77
2021/05/14 08:35:08;;;;;;;2.50;1.90;;;;;;;;;;5096476;28;20771;-78
2021/05/14 08:37:36;;;;;;;2.30;2.10;;;;;;;;;;5105933;28;20485;-79
2021/05/14 08:40:02;;;;;;;3.33;1.13;;;;;;;;;;5109624;28;20409;-79
2021/05/14 08:42:28;;;;;;;2.50;1.57;;;;;;;;;;5093148;28;20423;-77
2021/05/14 08:44:54;;;;;;;4.63;1.30;;;;;;;;;;5104620;28;20904;-75
2021/05/14 08:47:20;;;;;;;1.33;1.23;;;;;;;;;;5103826;28;20380;-76
2021/05/14 08:49:47;;;;;;;3.27;2.70;;;;;;;;;;5120439;28;20405;-77
2021/05/14 08:52:17;;;;;;;4.60;1.70;;;;;;;;;;5120555;28;20412;-77
2021/05/14 08:54:46;;;;;;;2.00;1.67;;;;;;;;;;5102256;28;20437;-77
2021/05/14 08:57:12;;;;;;;1.90;1.43;;;;;;;;;;5092975;28;20599;-77
2021/05/14 08:59:39;;;;;;;9.13;1.43;;;;;;;;;;5087811;28;20402;-78
2021/05/14 09:02:05;;;;;;;1.63;1.17;;;;;;;;;;5089167;28;20417;-77
2021/05/14 09:04:33;;;;;;;13.47;1.60;;;;;;;;;;5093197;28;20449;-78
2021/05/14 09:07:00;;;;;;;1.63;1.13;;;;;;;;;;5067164;28;20517;-77
2021/05/14 09:09:27;;;;;;;2.60;1.30;;;;;;;;;;5075852;28;20462;-77
2021/05/14 09:11:53;;;;;;;1.67;1.00;;;;;;;;;;5072264;28;20394;-77
2021/05/14 09:14:32;;;;;;;1.57;1.30;;;;;;;;;;5106720;28;20447;-78
2021/05/14 09:17:20;;;;;;;1.10;0.90;;;;;;;;;;5107048;28;20421;-77
2021/05/14 09:19:47;;;;;;;1.77;1.27;;;;;;;;;;5095649;28;20401;-78
2021/05/14 09:22:15;;;;;;;11.03;5.80;;;;;;;;;;5104094;28;20457;-78
2021/05/14 09:24:43;;;;;;;4.80;1.23;;;;;;;;;;5102960;28;20434;-77
2021/05/14 09:27:29;;;;;;;2.80;1.33;;;;;;;;;;5098200;28;20417;-78
2021/05/14 09:29:57;;;;;;;1.63;1.53;;;;;;;;;;5107611;28;20428;-78
2021/05/14 09:32:27;;;;;;;2.83;0.90;;;;;;;;;;5098273;28;20465;-77
2021/05/14 09:34:54;;;;;;;1.77;1.07;;;;;;;;;;5070737;28;20432;-76
2021/05/14 09:37:23;;;;;;;12.30;2.30;;;;;;;;;;5084333;28;20407;-76
2021/05/14 09:39:49;;;;;;;1.60;1.07;;;;;;;;;;5085251;28;20831;-77
2021/05/14 09:42:29;;;;;;;1.13;0.90;;;;;;;;;;5081995;28;20433;-76
2021/05/14 09:45:12;;;;;;;1.27;0.90;;;;;;;;;;5083627;28;21009;-76
2021/05/14 09:47:38;;;;;;;2.50;1.90;;;;;;;;;;5089396;28;20415;-74
2021/05/14 09:50:23;;;;;;;1.40;1.30;;;;;;;;;;5083078;28;20384;-74
2021/05/14 09:53:05;;;;;;;4.57;1.67;;;;;;;;;;5088345;28;20484;-72
2021/05/14 09:55:31;;;;;;;2.53;1.63;;;;;;;;;;5084354;28;20394;-75
2021/05/14 09:58:04;;;;;;;1.47;1.37;;;;;;;;;;5078699;28;20428;-75
2021/05/14 10:00:30;;;;;;;1.47;1.37;;;;;;;;;;5054953;28;20450;-76
2021/05/14 10:02:59;;;;;;;1.90;0.97;;;;;;;;;;5072670;28;20418;-75
2021/05/14 10:05:25;;;;;;;4.60;1.23;;;;;;;;;;5072411;28;20404;-75
2021/05/14 10:07:52;;;;;;;1.10;1.00;;;;;;;;;;5072866;28;20401;-76
2021/05/14 10:10:19;;;;;;;4.80;1.60;;;;;;;;;;5074620;28;20771;-78
2021/05/14 10:12:48;;;;;;;3.40;1.30;;;;;;;;;;5077266;28;20397;-76
2021/05/14 10:15:14;;;;;;;1.97;1.13;;;;;;;;;;5060913;28;20454;-76
2021/05/14 10:17:41;;;;;;;2.40;1.23;;;;;;;;;;5085987;28;20446;-78
2021/05/14 10:20:13;;;;;;;16.40;1.97;;;;;;;;;;5070529;28;20380;-77
2021/05/14 10:22:40;;;;;;;2.40;2.30;;;;;;;;;;5090020;28;20418;-76
2021/05/14 10:25:07;;;;;;;4.20;1.63;;;;;;;;;;5074435;28;20457;-77
2021/05/14 10:27:46;;;;;;;4.57;1.20;;;;;;;;;;5086518;28;20409;-76
2021/05/14 10:30:29;;;;;;;3.23;1.20;;;;;;;;;;5085599;28;20504;-76
2021/05/14 10:32:55;;;;;;;2.63;1.40;;;;;;;;;;5091915;28;20415;-75
2021/05/14 10:35:26;;;;;;;1.53;1.00;;;;;;;;;;5060950;28;20496;-75
2021/05/14 10:37:54;;;;;;;2.13;1.70;;;;;;;;;;5093091;28;20438;-75
2021/05/14 10:40:41;;;;;;;1.80;1.50;;;;;;;;;;5080318;28;20408;-75
2021/05/14 10:43:07;;;;;;;4.80;1.30;;;;;;;;;;5072686;28;20480;-72
2021/05/14 10:45:33;;;;;;;2.20;1.70;;;;;;;;;;5082663;28;20475;-71
2021/05/14 10:47:59;;;;;;;2.63;1.40;;;;;;;;;;5099883;28;20425;-76
2021/05/14 10:50:39;;;;;;;6.40;1.40;;;;;;;;;;5079688;28;20455;-72
2021/05/14 10:53:17;;;;;;;2.70;1.30;;;;;;;;;;5087468;28;20452;-72
2021/05/14 10:55:44;;;;;;;1.87;0.80;;;;;;;;;;5066833;28;20372;-72
2021/05/14 10:58:30;;;;;;;2.50;1.27;;;;;;;;;;5102941;28;20417;-74
2021/05/14 11:00:56;;;;;;;1.33;1.13;;;;;;;;;;5097858;28;20414;-73
2021/05/14 11:03:22;;;;;;;5.57;1.70;;;;;;;;;;5073556;28;20501;-73
2021/05/14 11:06:08;;;;;;;7.97;2.60;;;;;;;;;;5078499;28;20931;-73
2021/05/14 11:08:34;;;;;;;2.07;1.40;;;;;;;;;;5096691;28;20876;-73
2021/05/14 11:11:00;;;;;;;1.23;1.13;;;;;;;;;;5082566;28;20468;-72
2021/05/14 11:13:48;;;;;;;1.60;1.17;;;;;;;;;;5100827;28;20402;-73
2021/05/14 11:16:33;;;;;;;1.00;0.80;;;;;;;;;;5100784;28;20405;-74
2021/05/14 11:19:00;;;;;;;1.50;1.20;;;;;;;;;;5101338;28;20407;-75
2021/05/14 11:21:49;;;;;;;1.47;1.23;;;;;;;;;;5082612;28;20500;-73
2021/05/14 11:24:17;;;;;;;1.97;1.23;;;;;;;;;;5091707;28;20430;-74
2021/05/14 11:26:51;;;;;;;1.43;0.80;;;;;;;;;;5078276;28;20437;-73
2021/05/14 11:29:28;;;;;;;1.37;1.27;;;;;;;;;;5080244;28;20424;-74
2021/05/14 11:31:54;;;;;;;2.50;0.90;;;;;;;;;;5081798;28;20421;-73
2021/05/14 11:34:20;;;;;;;1.53;1.43;;;;;;;;;;5081290;28;20426;-75
2021/05/14 11:36:49;;;;;;;1.50;1.23;;;;;;;;;;5081359;28;20406;-74
2021/05/14 11:39:23;;;;;;;1.13;1.03;;;;;;;;;;5083102;28;20424;-73
2021/05/14 11:41:58;;;;;;;4.87;1.53;;;;;;;;;;5077377;28;20466;-74
2021/05/14 11:44:26;;;;;;;5.93;1.30;;;;;;;;;;5101144;28;20454;-73
2021/05/14 11:46:56;;;;;;;3.70;1.37;;;;;;;;;;5082675;28;20372;-72
2021/05/14 11:49:22;;;;;;;2.20;1.00;;;;;;;;;;5082727;28;20372;-73
2021/05/14 11:51:49;;;;;;;1.27;1.17;;;;;;;;;;5100873;28;20739;-73
2021/05/14 11:54:15;;;;;;;4.40;1.40;;;;;;;;;;5083759;28;20456;-73
2021/05/14 11:56:45;;;;;;;1.27;1.17;;;;;;;;;;5079539;28;20402;-73
2021/05/14 11:59:21;;;;;;;1.57;1.17;;;;;;;;;;5061611;28;20425;-73
2021/05/14 12:01:47;;;;;;;2.10;1.30;;;;;;;;;;5082651;28;20440;-70
2021/05/14 12:04:13;;;;;;;1.20;1.10;;;;;;;;;;5100631;28;20430;-71
2021/05/14 12:06:49;;;;;;;3.93;2.80;;;;;;;;;;5101609;28;20482;-72
2021/05/14 12:09:15;;;;;;;2.60;1.50;;;;;;;;;;5104566;28;20423;-71
2021/05/14 12:11:42;;;;;;;1.33;1.10;;;;;;;;;;5084918;28;20404;-73
2021/05/14 12:14:08;;;;;;;1.20;1.10;;;;;;;;;;5101827;28;20860;-73
2021/05/14 12:16:37;;;;;;;2.50;1.50;;;;;;;;;;5083009;28;20415;-73
2021/05/14 12:19:04;;;;;;;1.87;1.20;;;;;;;;;;5101063;28;20505;-73
2021/05/14 12:21:32;;;;;;;1.23;0.97;;;;;;;;;;5100802;28;20419;-74
2021/05/14 12:24:00;;;;;;;2.30;1.10;;;;;;;;;;5100869;28;20613;-73
2021/05/14 12:26:32;;;;;;;6.90;1.63;;;;;;;;;;5070922;28;20431;-74
2021/05/14 12:29:02;;;;;;;2.13;1.87;;;;;;;;;;5080551;28;20807;-74
2021/05/14 12:31:28;;;;;;;1.87;1.13;;;;;;;;;;5074291;28;20421;-74
2021/05/14 12:33:55;;;;;;;1.77;0.97;;;;;;;;;;5088919;28;20446;-76
2021/05/14 12:36:31;;;;;;;2.20;1.40;;;;;;;;;;5091498;28;20926;-74
2021/05/14 12:39:06;;;;;;;1.30;1.20;;;;;;;;;;5090234;28;20423;-73
2021/05/14 12:41:34;;;;;;;0.97;0.73;;;;;;;;;;5075760;28;20991;-75
2021/05/14 12:44:13;;;;;;;1.47;0.90;;;;;;;;;;5087681;28;20513;-77
2021/05/14 12:46:58;;;;;;;2.73;1.57;;;;;;;;;;5090543;28;20398;-76
2021/05/14 12:49:24;;;;;;;3.03;1.77;;;;;;;;;;5092871;28;20771;-76
2021/05/14 12:52:03;;;;;;;2.10;1.57;;;;;;;;;;5065443;28;20437;-77
2021/05/14 12:54:29;;;;;;;2.80;1.10;;;;;;;;;;5074723;28;20453;-77
2021/05/14 12:56:55;;;;;;;1.33;0.80;;;;;;;;;;5078277;28;20467;-76
2021/05/14 12:59:23;;;;;;;2.87;1.13;;;;;;;;;;5085643;28;20452;-76
2021/05/14 13:01:50;;;;;;;1.00;0.80;;;;;;;;;;5087960;28;20943;-75
2021/05/14 13:04:17;;;;;;;2.10;0.97;;;;;;;;;;5082338;28;20734;-76
2021/05/14 13:06:46;;;;;;;1.90;1.70;;;;;;;;;;5083336;28;20901;-76
2021/05/14 13:09:15;;;;;;;1.20;1.00;;;;;;;;;;5083552;28;20493;-76
2021/05/14 13:11:42;;;;;;;1.13;0.97;;;;;;;;;;5067598;28;21043;-77
2021/05/14 13:14:13;;;;;;;3.47;1.00;;;;;;;;;;5085859;28;20399;-76
2021/05/14 13:16:39;;;;;;;2.70;1.57;;;;;;;;;;5088246;28;20398;-77
2021/05/14 13:19:05;;;;;;;2.43;1.73;;;;;;;;;;5077725;28;21176;-77
2021/05/14 13:21:32;;;;;;;1.50;1.40;;;;;;;;;;5069156;28;20918;-77
2021/05/14 13:23:58;;;;;;;3.63;2.33;;;;;;;;;;5070417;28;20517;-75
2021/05/14 13:26:24;;;;;;;1.47;1.03;;;;;;;;;;5064250;28;20889;-76
2021/05/14 13:28:52;;;;;;;1.00;0.87;;;;;;;;;;5084949;28;20409;-75
2021/05/14 13:31:19;;;;;;;3.97;2.00;;;;;;;;;;5072713;28;20403;-77
2021/05/14 13:33:48;;;;;;;2.13;1.27;;;;;;;;;;5089117;28;20411;-77
2021/05/14 13:36:17;;;;;;;2.37;1.40;;;;;;;;;;5090305;28;20445;-74
2021/05/14 13:38:45;;;;;;;4.30;1.87;;;;;;;;;;5078979;28;20472;-75
2021/05/14 13:41:11;;;;;;;1.27;1.10;;;;;;;;;;5078388;28;21112;-77
2021/05/14 13:43:37;;;;;;;2.40;1.80;;;;;;;;;;5089754;28;20547;-75
2021/05/14 13:46:04;;;;;;;1.80;1.67;;;;;;;;;;5054533;28;21398;-74
2021/05/14 13:48:32;;;;;;;2.63;1.50;;;;;;;;;;5083510;28;20462;-74
2021/05/14 13:51:01;;;;;;;1.17;1.00;;;;;;;;;;5065704;28;20416;-75
2021/05/14 13:53:27;;;;;;;5.33;1.30;;;;;;;;;;5087906;28;20435;-75
2021/05/14 13:55:56;;;;;;;2.03;1.70;;;;;;;;;;5089263;28;20417;-75
2021/05/14 13:58:22;;;;;;;2.13;2.00;;;;;;;;;;5066943;28;20549;-75
2021/05/14 14:00:48;;;;;;;1.33;1.17;;;;;;;;;;5085711;28;20488;-75
2021/05/14 14:03:14;;;;;;;2.07;1.03;;;;;;;;;;5064740;28;20449;-74
2021/05/14 14:05:43;;;;;;;2.70;1.60;;;;;;;;;;5081218;28;20486;-75
2021/05/14 14:08:10;;;;;;;2.40;1.00;;;;;;;;;;5081783;28;20413;-74
2021/05/14 14:10:39;;;;;;;0.83;0.80;;;;;;;;;;5080156;28;20418;-75
2021/05/14 14:13:08;;;;;;;1.63;1.53;;;;;;;;;;5081664;28;20775;-74
2021/05/14 14:15:34;;;;;;;4.67;2.00;;;;;;;;;;5087940;28;20433;-74
2021/05/14 14:18:00;;;;;;;2.50;1.30;;;;;;;;;;5071660;28;20400;-75
2021/05/14 14:20:26;;;;;;;1.30;1.20;;;;;;;;;;5069416;28;20437;-73
2021/05/14 14:22:52;;;;;;;3.63;2.10;;;;;;;;;;5064975;28;21067;-75
2021/05/14 14:25:19;;;;;;;1.93;1.10;;;;;;;;;;5086253;28;20407;-75
2021/05/14 14:27:44;;;;;;;1.40;1.27;;;;;;;;;;5065385;28;20383;-74
2021/05/14 14:30:11;;;;;;;2.00;1.90;;;;;;;;;;5075219;28;20405;-74
2021/05/14 14:32:38;;;;;;;1.67;1.57;;;;;;;;;;5073663;28;20544;-74
2021/05/14 14:35:04;;;;;;;2.93;1.23;;;;;;;;;;5069695;28;20433;-73
2021/05/14 14:37:31;;;;;;;1.40;1.30;;;;;;;;;;5068152;28;20425;-74
2021/05/14 14:39:56;;;;;;;2.10;1.53;;;;;;;;;;5070942;28;20825;-73
2021/05/14 14:42:25;;;;;;;1.73;1.00;;;;;;;;;;5079854;28;20426;-75
2021/05/14 14:44:51;;;;;;;1.20;0.80;;;;;;;;;;5083118;28;20454;-73
2021/05/14 14:47:18;;;;;;;2.50;1.90;;;;;;;;;;5082877;28;20454;-74
2021/05/14 14:49:44;;;;;;;1.30;1.00;;;;;;;;;;5062487;28;20961;-74